sensor_id;sensor_type;location;lat;lon;timestamp;pressure;altitude;pressure_sealevel;temperature;humidity
5814;BME280;2933;52.302;8.134;2023-01-27T00:04:31;101323.31;;;1.04;100.00
5814;BME280;2933;52.302;8.134;2023-01-27T00:09:33;101313.06;;;0.98;100.00
5814;BME280;2933;52.302;8.134;2023-01-27T00:14:34;101310.50;;;0.96;100.00
5814;BME280;2933;52.302;8.134;2023-01-27T00:19:37;101322.38;;;1.09;100.00
5814;BME280;2933;52.302;8.134;2023-01-27T00:24:43;101315.59;;;1.04;100.00
5814;BME280;2933;52.302;8.134;2023-01-27T00:29:45;101317.25;;;1.11;100.00
5814;BME280;2933;52.302;8.134;2023-01-27T00:34:48;101319.03;;;1.03;100.00
5814;BME280;2933;52.302;8.134;2023-01-27T00:39:49;101318.13;;;1.05;100.00
5814;BME280;2933;52.302;8.134;2023-01-27T00:44:51;101325.84;;;1.07;100.00
5814;BME280;2933;52.302;8.134;2023-01-27T00:50:11;101319.84;;;1.08;100.00
5814;BME280;2933;52.302;8.134;2023-01-27T00:55:13;101332.69;;;1.08;100.00
5814;BME280;2933;52.302;8.134;2023-01-27T01:00:15;101334.41;;;1.09;100.00
5814;BME280;2933;52.302;8.134;2023-01-27T01:05:19;101336.97;;;1.09;100.00
5814;BME280;2933;52.302;8.134;2023-01-27T01:10:20;101334.41;;;1.12;100.00
5814;BME280;2933;52.302;8.134;2023-01-27T01:15:22;101327.50;;;1.14;100.00
5814;BME280;2933;52.302;8.134;2023-01-27T01:20:25;101333.47;;;1.18;100.00
5814;BME280;2933;52.302;8.134;2023-01-27T01:25:26;101336.03;;;1.21;100.00
5814;BME280;2933;52.302;8.134;2023-01-27T01:30:28;101345.44;;;1.25;100.00
5814;BME280;2933;52.302;8.134;2023-01-27T01:35:36;101342.88;;;1.23;100.00
5814;BME280;2933;52.302;8.134;2023-01-27T01:40:39;101331.75;;;1.20;100.00
5814;BME280;2933;52.302;8.134;2023-01-27T01:45:50;101329.13;;;1.26;100.00
5814;BME280;2933;52.302;8.134;2023-01-27T01:50:56;101325.72;;;1.24;100.00
5814;BME280;2933;52.302;8.134;2023-01-27T01:56:03;101340.25;;;1.31;100.00
5814;BME280;2933;52.302;8.134;2023-01-27T02:01:06;101332.50;;;1.33;100.00
5814;BME280;2933;52.302;8.134;2023-01-27T02:06:10;101330.81;;;1.30;100.00
5814;BME280;2933;52.302;8.134;2023-01-27T02:11:12;101323.94;;;1.31;100.00
5814;BME280;2933;52.302;8.134;2023-01-27T02:16:15;101340.22;;;1.36;100.00
5814;BME280;2933;52.302;8.134;2023-01-27T02:21:18;101332.47;;;1.34;100.00
5814;BME280;2933;52.302;8.134;2023-01-27T02:26:24;101329.09;;;1.32;100.00
5814;BME280;2933;52.302;8.134;2023-01-27T02:31:28;101338.47;;;1.36;100.00
5814;BME280;2933;52.302;8.134;2023-01-27T02:36:32;101329.84;;;1.42;100.00
5814;BME280;2933;52.302;8.134;2023-01-27T02:41:38;101329.00;;;1.40;100.00
5814;BME280;2933;52.302;8.134;2023-01-27T02:46:40;101335.00;;;1.40;100.00
5814;BME280;2933;52.302;8.134;2023-01-27T02:51:42;101330.69;;;1.42;100.00
5814;BME280;2933;52.302;8.134;2023-01-27T02:56:45;101322.19;;;1.36;100.00
5814;BME280;2933;52.302;8.134;2023-01-27T03:01:46;101346.16;;;1.42;100.00
5814;BME280;2933;52.302;8.134;2023-01-27T03:06:48;101347.81;;;1.47;100.00
5814;BME280;2933;52.302;8.134;2023-01-27T03:11:51;101345.25;;;1.48;100.00
5814;BME280;2933;52.302;8.134;2023-01-27T03:17:10;101339.22;;;1.48;100.00
5814;BME280;2933;52.302;8.134;2023-01-27T03:22:29;101342.66;;;1.48;100.00
5814;BME280;2933;52.302;8.134;2023-01-27T03:27:32;101345.19;;;1.51;100.00
5814;BME280;2933;52.302;8.134;2023-01-27T03:32:34;101351.19;;;1.53;100.00
5814;BME280;2933;52.302;8.134;2023-01-27T03:37:35;101353.69;;;1.61;100.00
5814;BME280;2933;52.302;8.134;2023-01-27T03:42:56;101348.56;;;1.59;100.00
5814;BME280;2933;52.302;8.134;2023-01-27T03:48:15;101354.59;;;1.58;100.00
5814;BME280;2933;52.302;8.134;2023-01-27T03:53:20;101366.53;;;1.64;100.00
5814;BME280;2933;52.302;8.134;2023-01-27T03:58:25;101360.59;;;1.60;100.00
5814;BME280;2933;52.302;8.134;2023-01-27T04:03:29;101360.59;;;1.60;100.00
5814;BME280;2933;52.302;8.134;2023-01-27T04:08:48;101363.13;;;1.64;100.00
5814;BME280;2933;52.302;8.134;2023-01-27T04:13:51;101364.81;;;1.65;100.00
5814;BME280;2933;52.302;8.134;2023-01-27T04:18:52;101375.09;;;1.66;100.00
5814;BME280;2933;52.302;8.134;2023-01-27T04:23:54;101366.53;;;1.67;100.00
5814;BME280;2933;52.302;8.134;2023-01-27T04:28:57;101372.50;;;1.68;100.00
5814;BME280;2933;52.302;8.134;2023-01-27T04:33:58;101378.53;;;1.68;100.00
5814;BME280;2933;52.302;8.134;2023-01-27T04:39:00;101378.50;;;1.70;100.00
5814;BME280;2933;52.302;8.134;2023-01-27T04:44:05;101385.41;;;1.66;100.00
5814;BME280;2933;52.302;8.134;2023-01-27T04:49:07;101375.09;;;1.69;100.00
5814;BME280;2933;52.302;8.134;2023-01-27T04:54:09;101378.59;;;1.62;100.00
5814;BME280;2933;52.302;8.134;2023-01-27T04:59:13;101384.50;;;1.73;100.00
5814;BME280;2933;52.302;8.134;2023-01-27T05:04:14;101388.84;;;1.68;100.00
5814;BME280;2933;52.302;8.134;2023-01-27T05:09:16;101387.16;;;1.66;100.00
5814;BME280;2933;52.302;8.134;2023-01-27T05:14:20;101392.13;;;1.81;100.00
5814;BME280;2933;52.302;8.134;2023-01-27T05:19:22;101405.88;;;1.82;100.00
5814;BME280;2933;52.302;8.134;2023-01-27T05:24:24;101411.06;;;1.77;100.00
5814;BME280;2933;52.302;8.134;2023-01-27T05:29:27;101405.13;;;1.72;100.00
5814;BME280;2933;52.302;8.134;2023-01-27T05:34:28;101407.69;;;1.73;100.00
5814;BME280;2933;52.302;8.134;2023-01-27T05:39:30;101421.38;;;1.78;100.00
5814;BME280;2933;52.302;8.134;2023-01-27T05:44:33;101409.34;;;1.77;100.00
5814;BME280;2933;52.302;8.134;2023-01-27T05:49:34;101420.47;;;1.84;100.00
5814;BME280;2933;52.302;8.134;2023-01-27T05:54:36;101413.66;;;1.74;100.00
5814;BME280;2933;52.302;8.134;2023-01-27T05:59:39;101422.22;;;1.79;100.00
5814;BME280;2933;52.302;8.134;2023-01-27T06:04:40;101387.25;;;1.53;100.00
5814;BME280;2933;52.302;8.134;2023-01-27T06:09:42;101430.75;;;1.86;100.00
5814;BME280;2933;52.302;8.134;2023-01-27T06:14:45;101444.56;;;1.78;100.00
5814;BME280;2933;52.302;8.134;2023-01-27T06:19:46;101441.16;;;1.75;100.00
5814;BME280;2933;52.302;8.134;2023-01-27T06:24:48;101441.94;;;1.80;100.00
5814;BME280;2933;52.302;8.134;2023-01-27T06:29:50;101440.25;;;1.77;100.00
5814;BME280;2933;52.302;8.134;2023-01-27T06:34:52;101438.53;;;1.76;100.00
5814;BME280;2933;52.302;8.134;2023-01-27T06:39:53;101452.28;;;1.78;100.00
5814;BME280;2933;52.302;8.134;2023-01-27T06:44:56;101453.13;;;1.77;100.00
5814;BME280;2933;52.302;8.134;2023-01-27T06:49:58;101449.72;;;1.74;100.00
5814;BME280;2933;52.302;8.134;2023-01-27T06:54:59;101460.03;;;1.77;100.00
5814;BME280;2933;52.302;8.134;2023-01-27T07:00:03;101461.72;;;1.76;100.00
5814;BME280;2933;52.302;8.134;2023-01-27T07:05:06;101471.13;;;1.84;100.00
5814;BME280;2933;52.302;8.134;2023-01-27T07:10:08;101464.25;;;1.84;100.00
5814;BME280;2933;52.302;8.134;2023-01-27T07:15:12;101468.59;;;1.81;100.00
5814;BME280;2933;52.302;8.134;2023-01-27T07:20:13;101471.25;;;1.73;100.00
5814;BME280;2933;52.302;8.134;2023-01-27T07:25:15;101455.84;;;1.67;100.00
5814;BME280;2933;52.302;8.134;2023-01-27T07:30:18;101460.13;;;1.61;100.00
5814;BME280;2933;52.302;8.134;2023-01-27T07:35:20;101496.13;;;1.75;100.00
5814;BME280;2933;52.302;8.134;2023-01-27T07:40:22;101512.34;;;1.84;100.00
5814;BME280;2933;52.302;8.134;2023-01-27T07:45:25;101511.53;;;1.78;100.00
5814;BME280;2933;52.302;8.134;2023-01-27T07:50:27;101517.56;;;1.79;100.00
5814;BME280;2933;52.302;8.134;2023-01-27T07:55:29;101526.09;;;1.83;100.00
5814;BME280;2933;52.302;8.134;2023-01-27T08:00:33;101533.00;;;1.81;100.00
5814;BME280;2933;52.302;8.134;2023-01-27T08:05:34;101532.13;;;1.82;100.00
5814;BME280;2933;52.302;8.134;2023-01-27T08:10:37;101543.25;;;1.85;100.00
5814;BME280;2933;52.302;8.134;2023-01-27T08:15:40;101545.88;;;1.81;100.00
5814;BME280;2933;52.302;8.134;2023-01-27T08:20:42;101552.72;;;1.85;100.00
5814;BME280;2933;52.302;8.134;2023-01-27T08:25:48;101542.44;;;1.78;100.00
5814;BME280;2933;52.302;8.134;2023-01-27T08:30:51;101556.19;;;1.81;100.00
5814;BME280;2933;52.302;8.134;2023-01-27T08:35:53;101568.19;;;1.85;100.00
5814;BME280;2933;52.302;8.134;2023-01-27T08:40:54;101563.94;;;1.76;100.00
5814;BME280;2933;52.302;8.134;2023-01-27T08:45:58;101570.75;;;1.85;100.00
5814;BME280;2933;52.302;8.134;2023-01-27T08:51:00;101575.06;;;1.81;100.00
5814;BME280;2933;52.302;8.134;2023-01-27T08:56:04;101581.91;;;1.84;100.00
5814;BME280;2933;52.302;8.134;2023-01-27T09:01:08;101567.28;;;1.89;100.00
5814;BME280;2933;52.302;8.134;2023-01-27T09:06:11;101585.25;;;1.98;100.00
5814;BME280;2933;52.302;8.134;2023-01-27T09:11:16;101588.69;;;1.99;100.00
5814;BME280;2933;52.302;8.134;2023-01-27T09:16:19;101597.28;;;1.98;100.00
5814;BME280;2933;52.302;8.134;2023-01-27T09:21:20;101590.44;;;1.97;100.00
5814;BME280;2933;52.302;8.134;2023-01-27T09:26:22;101599.00;;;2.02;100.00
5814;BME280;2933;52.302;8.134;2023-01-27T09:31:25;101594.72;;;1.99;100.00
5814;BME280;2933;52.302;8.134;2023-01-27T09:36:26;101594.69;;;2.02;100.00
5814;BME280;2933;52.302;8.134;2023-01-27T09:41:52;101597.25;;;2.05;100.00
5814;BME280;2933;52.302;8.134;2023-01-27T09:47:10;101607.44;;;2.16;100.00
5814;BME280;2933;52.302;8.134;2023-01-27T09:52:29;101603.22;;;2.10;100.00
5814;BME280;2933;52.302;8.134;2023-01-27T09:57:43;101605.69;;;2.23;100.00
5814;BME280;2933;52.302;8.134;2023-01-27T10:03:11;101614.31;;;2.20;100.00
5814;BME280;2933;52.302;8.134;2023-01-27T10:08:27;101618.59;;;2.23;100.00
5814;BME280;2933;52.302;8.134;2023-01-27T10:13:41;101610.81;;;2.29;100.00
5814;BME280;2933;52.302;8.134;2023-01-27T10:19:05;101613.28;;;2.38;100.00
5814;BME280;2933;52.302;8.134;2023-01-27T10:24:13;101618.41;;;2.45;100.00
5814;BME280;2933;52.302;8.134;2023-01-27T10:29:24;101613.34;;;2.32;100.00
5814;BME280;2933;52.302;8.134;2023-01-27T10:34:31;101615.06;;;2.32;100.00
5814;BME280;2933;52.302;8.134;2023-01-27T10:39:39;101619.34;;;2.36;100.00
5814;BME280;2933;52.302;8.134;2023-01-27T10:44:58;101607.25;;;2.42;100.00
5814;BME280;2933;52.302;8.134;2023-01-27T10:50:09;101610.72;;;2.38;100.00
5814;BME280;2933;52.302;8.134;2023-01-27T10:55:16;101617.50;;;2.47;100.00
5814;BME280;2933;52.302;8.134;2023-01-27T11:00:28;101622.56;;;2.61;100.00
5814;BME280;2933;52.302;8.134;2023-01-27T11:05:35;101626.84;;;2.64;100.00
5814;BME280;2933;52.302;8.134;2023-01-27T11:10:41;101624.28;;;2.61;100.00
5814;BME280;2933;52.302;8.134;2023-01-27T11:16:10;101614.88;;;2.56;100.00
5814;BME280;2933;52.302;8.134;2023-01-27T11:21:18;101617.41;;;2.58;100.00
5814;BME280;2933;52.302;8.134;2023-01-27T11:26:28;101618.25;;;2.58;100.00
5814;BME280;2933;52.302;8.134;2023-01-27T11:31:36;101614.75;;;2.66;100.00
5814;BME280;2933;52.302;8.134;2023-01-27T11:36:39;101613.94;;;2.62;100.00
5814;BME280;2933;52.302;8.134;2023-01-27T11:41:45;101610.47;;;2.66;100.00
5814;BME280;2933;52.302;8.134;2023-01-27T11:46:48;101601.97;;;2.56;100.00
5814;BME280;2933;52.302;8.134;2023-01-27T11:51:57;101609.75;;;2.50;100.00
5814;BME280;2933;52.302;8.134;2023-01-27T11:57:06;101607.94;;;2.60;100.00
5814;BME280;2933;52.302;8.134;2023-01-27T12:02:23;101573.78;;;2.35;100.00
5814;BME280;2933;52.302;8.134;2023-01-27T12:07:36;101603.72;;;2.53;100.00
5814;BME280;2933;52.302;8.134;2023-01-27T12:12:39;101594.19;;;2.58;100.00
5814;BME280;2933;52.302;8.134;2023-01-27T12:17:42;101600.25;;;2.55;100.00
5814;BME280;2933;52.302;8.134;2023-01-27T12:22:50;101572.84;;;2.42;100.00
5814;BME280;2933;52.302;8.134;2023-01-27T12:27:56;101577.97;;;2.48;100.00
5814;BME280;2933;52.302;8.134;2023-01-27T12:32:59;101586.56;;;2.49;100.00
5814;BME280;2933;52.302;8.134;2023-01-27T12:38:17;101584.72;;;2.58;100.00
5814;BME280;2933;52.302;8.134;2023-01-27T12:43:20;101583.88;;;2.61;100.00
5814;BME280;2933;52.302;8.134;2023-01-27T12:48:23;101575.28;;;2.59;100.00
5814;BME280;2933;52.302;8.134;2023-01-27T12:53:26;101577.88;;;2.57;100.00
5814;BME280;2933;52.302;8.134;2023-01-27T12:58:31;101588.19;;;2.56;100.00
5814;BME280;2933;52.302;8.134;2023-01-27T13:03:39;101586.44;;;2.59;100.00
5814;BME280;2933;52.302;8.134;2023-01-27T13:08:44;101579.63;;;2.54;100.00
5814;BME280;2933;52.302;8.134;2023-01-27T13:13:49;101556.69;;;2.24;100.00
5814;BME280;2933;52.302;8.134;2023-01-27T13:18:52;101597.00;;;2.36;100.00
5814;BME280;2933;52.302;8.134;2023-01-27T13:23:56;101590.06;;;2.38;100.00
5814;BME280;2933;52.302;8.134;2023-01-27T13:29:04;101598.72;;;2.34;100.00
5814;BME280;2933;52.302;8.134;2023-01-27T13:34:16;101560.28;;;2.08;100.00
5814;BME280;2933;52.302;8.134;2023-01-27T13:39:25;101595.28;;;2.32;100.00
5814;BME280;2933;52.302;8.134;2023-01-27T13:44:32;101597.00;;;2.36;100.00
5814;BME280;2933;52.302;8.134;2023-01-27T13:49:40;101602.09;;;2.42;100.00
5814;BME280;2933;52.302;8.134;2023-01-27T13:54:44;101597.78;;;2.40;100.00
5814;BME280;2933;52.302;8.134;2023-01-27T13:59:55;101603.03;;;2.32;100.00
5814;BME280;2933;52.302;8.134;2023-01-27T14:05:10;101608.25;;;2.28;100.00
5814;BME280;2933;52.302;8.134;2023-01-27T14:10:25;101607.34;;;2.29;100.00
5814;BME280;2933;52.302;8.134;2023-01-27T14:15:39;101613.38;;;2.26;100.00
5814;BME280;2933;52.302;8.134;2023-01-27T14:20:52;101616.84;;;2.23;100.00
5814;BME280;2933;52.302;8.134;2023-01-27T14:26:06;101617.66;;;2.29;100.00
5814;BME280;2933;52.302;8.134;2023-01-27T14:31:12;101616.03;;;2.20;100.00
5814;BME280;2933;52.302;8.134;2023-01-27T14:36:17;101626.38;;;2.14;100.00
5814;BME280;2933;52.302;8.134;2023-01-27T14:41:26;101610.94;;;2.12;100.00
5814;BME280;2933;52.302;8.134;2023-01-27T14:46:49;101623.78;;;2.17;100.00
5814;BME280;2933;52.302;8.134;2023-01-27T14:51:58;101631.50;;;2.20;100.00
5814;BME280;2933;52.302;8.134;2023-01-27T14:57:17;101638.38;;;2.19;100.00
5814;BME280;2933;52.302;8.134;2023-01-27T15:02:37;101633.28;;;2.12;100.00
5814;BME280;2933;52.302;8.134;2023-01-27T15:07:47;101640.16;;;2.11;100.00
5814;BME280;2933;52.302;8.134;2023-01-27T15:13:15;101642.72;;;2.13;100.00
5814;BME280;2933;52.302;8.134;2023-01-27T15:18:29;101646.19;;;2.07;100.00
5814;BME280;2933;52.302;8.134;2023-01-27T15:23:49;101631.69;;;1.93;100.00
5814;BME280;2933;52.302;8.134;2023-01-27T15:28:58;101658.28;;;2.02;100.00
5814;BME280;2933;52.302;8.134;2023-01-27T15:34:15;101649.72;;;1.93;100.00
5814;BME280;2933;52.302;8.134;2023-01-27T15:39:18;101661.69;;;2.05;100.00
5814;BME280;2933;52.302;8.134;2023-01-27T15:44:27;101663.41;;;2.02;100.00
5814;BME280;2933;52.302;8.134;2023-01-27T15:49:35;101673.72;;;1.99;100.00
5814;BME280;2933;52.302;8.134;2023-01-27T15:54:40;101670.28;;;2.00;100.00
5814;BME280;2933;52.302;8.134;2023-01-27T15:59:46;101669.41;;;2.02;100.00
5814;BME280;2933;52.302;8.134;2023-01-27T16:04:52;101659.22;;;1.87;100.00
5814;BME280;2933;52.302;8.134;2023-01-27T16:09:55;101671.22;;;1.94;100.00
5814;BME280;2933;52.302;8.134;2023-01-27T16:15:34;101670.34;;;1.93;100.00
5814;BME280;2933;52.302;8.134;2023-01-27T16:20:43;101664.41;;;1.79;100.00
5814;BME280;2933;52.302;8.134;2023-01-27T16:25:53;101675.50;;;1.92;100.00
5814;BME280;2933;52.302;8.134;2023-01-27T16:31:04;101668.69;;;1.80;100.00
5814;BME280;2933;52.302;8.134;2023-01-27T16:36:18;101679.88;;;1.79;100.00
5814;BME280;2933;52.302;8.134;2023-01-27T16:41:26;101675.63;;;1.69;100.00
5814;BME280;2933;52.302;8.134;2023-01-27T16:46:33;101685.06;;;1.73;100.00
5814;BME280;2933;52.302;8.134;2023-01-27T16:51:37;101691.09;;;1.66;100.00
5814;BME280;2933;52.302;8.134;2023-01-27T16:56:38;101689.38;;;1.61;100.00
5814;BME280;2933;52.302;8.134;2023-01-27T17:01:45;101705.69;;;1.64;100.00
5814;BME280;2933;52.302;8.134;2023-01-27T17:06:50;101707.38;;;1.71;100.00
5814;BME280;2933;52.302;8.134;2023-01-27T17:11:52;101669.75;;;1.39;100.00
5814;BME280;2933;52.302;8.134;2023-01-27T17:16:56;101708.34;;;1.48;100.00
5814;BME280;2933;52.302;8.134;2023-01-27T17:22:01;101712.56;;;1.60;100.00
5814;BME280;2933;52.302;8.134;2023-01-27T17:27:07;101713.47;;;1.50;100.00
5814;BME280;2933;52.302;8.134;2023-01-27T17:32:17;101722.88;;;1.61;100.00
5814;BME280;2933;52.302;8.134;2023-01-27T17:37:21;101732.41;;;1.39;100.00
5814;BME280;2933;52.302;8.134;2023-01-27T17:42:25;101744.44;;;1.36;100.00
5814;BME280;2933;52.302;8.134;2023-01-27T17:47:29;101738.41;;;1.38;100.00
5814;BME280;2933;52.302;8.134;2023-01-27T17:52:32;101749.53;;;1.47;100.00
5814;BME280;2933;52.302;8.134;2023-01-27T17:57:34;101761.59;;;1.32;100.00
5814;BME280;2933;52.302;8.134;2023-01-27T18:02:48;101757.28;;;1.37;100.00
5814;BME280;2933;52.302;8.134;2023-01-27T18:07:52;101765.03;;;1.26;100.00
5814;BME280;2933;52.302;8.134;2023-01-27T18:12:54;101777.06;;;1.21;100.00
5814;BME280;2933;52.302;8.134;2023-01-27T18:17:58;101778.78;;;1.13;100.00
5814;BME280;2933;52.302;8.134;2023-01-27T18:23:02;101776.22;;;1.05;100.00
5814;BME280;2933;52.302;8.134;2023-01-27T18:28:03;101771.94;;;1.07;100.00
5814;BME280;2933;52.302;8.134;2023-01-27T18:33:08;101772.78;;;1.03;100.00
5814;BME280;2933;52.302;8.134;2023-01-27T18:38:21;101778.78;;;1.01;100.00
5814;BME280;2933;52.302;8.134;2023-01-27T18:43:23;101785.63;;;1.08;100.00
5814;BME280;2933;52.302;8.134;2023-01-27T18:48:29;101788.22;;;1.00;100.00
5814;BME280;2933;52.302;8.134;2023-01-27T18:53:32;101786.50;;;1.05;100.00
5814;BME280;2933;52.302;8.134;2023-01-27T18:58:33;101790.78;;;0.95;100.00
5814;BME280;2933;52.302;8.134;2023-01-27T19:03:36;101786.50;;;0.94;100.00
5814;BME280;2933;52.302;8.134;2023-01-27T19:08:38;101801.09;;;0.91;100.00
5814;BME280;2933;52.302;8.134;2023-01-27T19:13:40;101804.50;;;0.88;100.00
5814;BME280;2933;52.302;8.134;2023-01-27T19:18:43;101797.66;;;0.93;100.00
5814;BME280;2933;52.302;8.134;2023-01-27T19:23:45;101808.81;;;0.97;100.00
5814;BME280;2933;52.302;8.134;2023-01-27T19:28:51;101807.09;;;0.99;100.00
5814;BME280;2933;52.302;8.134;2023-01-27T19:33:54;101811.41;;;0.91;100.00
5814;BME280;2933;52.302;8.134;2023-01-27T19:38:59;101818.25;;;0.93;100.00
5814;BME280;2933;52.302;8.134;2023-01-27T19:44:01;101820.81;;;0.96;100.00
5814;BME280;2933;52.302;8.134;2023-01-27T19:49:05;101812.22;;;0.85;100.00
5814;BME280;2933;52.302;8.134;2023-01-27T19:54:07;101820.81;;;0.87;100.00
5814;BME280;2933;52.302;8.134;2023-01-27T19:59:11;101817.38;;;0.91;100.00
5814;BME280;2933;52.302;8.134;2023-01-27T20:04:14;101814.81;;;0.90;100.00
5814;BME280;2933;52.302;8.134;2023-01-27T20:09:15;101823.38;;;0.76;100.00
5814;BME280;2933;52.302;8.134;2023-01-27T20:14:18;101829.38;;;0.72;100.00
5814;BME280;2933;52.302;8.134;2023-01-27T20:19:24;101825.09;;;0.79;100.00
5814;BME280;2933;52.302;8.134;2023-01-27T20:24:25;101831.97;;;0.78;100.00
5814;BME280;2933;52.302;8.134;2023-01-27T20:29:27;101832.78;;;0.67;100.00
5814;BME280;2933;52.302;8.134;2023-01-27T20:34:29;101831.06;;;0.67;100.00
5814;BME280;2933;52.302;8.134;2023-01-27T20:39:31;101829.34;;;0.61;100.00
5814;BME280;2933;52.302;8.134;2023-01-27T20:44:33;101810.47;;;0.52;100.00
5814;BME280;2933;52.302;8.134;2023-01-27T20:49:36;101813.91;;;0.63;100.00
5814;BME280;2933;52.302;8.134;2023-01-27T20:54:39;101825.06;;;0.65;100.00
5814;BME280;2933;52.302;8.134;2023-01-27T20:59:40;101824.19;;;0.64;100.00
5814;BME280;2933;52.302;8.134;2023-01-27T21:04:43;101825.06;;;0.59;100.00
5814;BME280;2933;52.302;8.134;2023-01-27T21:09:45;101822.47;;;0.53;100.00
5814;BME280;2933;52.302;8.134;2023-01-27T21:14:46;101825.06;;;0.67;100.00
5814;BME280;2933;52.302;8.134;2023-01-27T21:19:49;101821.66;;;0.72;100.00
5814;BME280;2933;52.302;8.134;2023-01-27T21:24:50;101825.09;;;0.70;100.00
5814;BME280;2933;52.302;8.134;2023-01-27T21:29:52;101827.59;;;0.56;100.00
5814;BME280;2933;52.302;8.134;2023-01-27T21:34:55;101822.50;;;0.57;100.00
5814;BME280;2933;52.302;8.134;2023-01-27T21:39:57;101801.06;;;0.55;100.00
5814;BME280;2933;52.302;8.134;2023-01-27T21:44:59;101789.88;;;0.44;100.00
5814;BME280;2933;52.302;8.134;2023-01-27T21:50:16;101801.88;;;0.43;100.00
5814;BME280;2933;52.302;8.134;2023-01-27T21:55:19;101784.75;;;0.48;98.69
5814;BME280;2933;52.302;8.134;2023-01-27T22:00:22;101797.59;;;0.39;98.95
5814;BME280;2933;52.302;8.134;2023-01-27T22:05:27;101782.13;;;0.28;100.00
5814;BME280;2933;52.302;8.134;2023-01-27T22:10:29;101787.31;;;0.38;100.00
5814;BME280;2933;52.302;8.134;2023-01-27T22:15:31;101795.91;;;0.55;100.00
5814;BME280;2933;52.302;8.134;2023-01-27T22:20:34;101795.91;;;0.49;99.14
5814;BME280;2933;52.302;8.134;2023-01-27T22:25:37;101789.03;;;0.45;98.96
5814;BME280;2933;52.302;8.134;2023-01-27T22:30:38;101789.06;;;0.57;99.17
5814;BME280;2933;52.302;8.134;2023-01-27T22:35:42;101793.34;;;0.47;99.11
5814;BME280;2933;52.302;8.134;2023-01-27T22:40:44;101791.59;;;0.42;99.63
5814;BME280;2933;52.302;8.134;2023-01-27T22:45:46;101783.84;;;0.31;97.34
5814;BME280;2933;52.302;8.134;2023-01-27T22:50:49;101787.28;;;0.35;94.28
5814;BME280;2933;52.302;8.134;2023-01-27T22:55:57;101783.81;;;0.19;94.79
5814;BME280;2933;52.302;8.134;2023-01-27T23:00:59;101756.34;;;-0.06;95.07
5814;BME280;2933;52.302;8.134;2023-01-27T23:06:04;101786.38;;;0.25;96.22
5814;BME280;2933;52.302;8.134;2023-01-27T23:11:06;101791.53;;;0.20;96.08
5814;BME280;2933;52.302;8.134;2023-01-27T23:16:08;101785.53;;;0.26;97.35
5814;BME280;2933;52.302;8.134;2023-01-27T23:21:11;101789.00;;;0.36;96.18
5814;BME280;2933;52.302;8.134;2023-01-27T23:26:12;101783.84;;;0.20;95.26
5814;BME280;2933;52.302;8.134;2023-01-27T23:31:14;101782.09;;;0.13;96.13
5814;BME280;2933;52.302;8.134;2023-01-27T23:36:17;101788.09;;;0.17;95.49
5814;BME280;2933;52.302;8.134;2023-01-27T23:41:18;101785.50;;;0.09;95.21
5814;BME280;2933;52.302;8.134;2023-01-27T23:46:21;101781.25;;;0.23;96.57
5814;BME280;2933;52.302;8.134;2023-01-27T23:51:23;101782.91;;;0.04;96.38
5814;BME280;2933;52.302;8.134;2023-01-27T23:56:25;101795.78;;;0.09;96.95
